Time;durP1;ratioP1;P1;durP2;ratioP2;P2;SDS_P1;SDS_P2;PMS_P1;PMS_P2;Temp;Humidity;BMP_temperature;BMP_pressure;BME280_temperature;BME280_humidity;BME280_pressure;Samples;Min_cycle;Max_cycle;Signal;HPM_P1;HPM_P2
2021/01/15 00:00:00;;;;;;;0.00;0.00;;;1.10;99.90;;;;;;4992407;28;20414;-69
2021/01/15 00:02:26;;;;;;;0.00;0.00;;;1.00;99.90;;;;;;4994635;28;20438;-69
2021/01/15 00:04:52;;;;;;;0.00;0.00;;;1.00;58.20;;;;;;4995076;28;20411;-70
2021/01/15 00:07:18;;;;;;;0.00;0.00;;;0.90;1.00;;;;;;4995016;28;20434;-71
2021/01/15 00:09:44;;;;;;;0.00;0.00;;;0.90;1.00;;;;;;4994832;28;20422;-68
2021/01/15 00:12:14;;;;;;;0.00;0.00;;;0.90;1.00;;;;;;4994739;28;20449;-70
2021/01/15 00:14:40;;;;;;;0.00;0.00;;;1.00;1.00;;;;;;4994570;28;20513;-70
2021/01/15 00:17:06;;;;;;;0.00;0.00;;;1.00;1.00;;;;;;4994685;28;20842;-71
2021/01/15 00:19:33;;;;;;;0.00;0.00;;;1.00;1.00;;;;;;4994509;28;20422;-70
2021/01/15 00:21:59;;;;;;;0.00;0.00;;;1.00;1.00;;;;;;4994182;28;20418;-70
2021/01/15 00:24:25;;;;;;;0.00;0.00;;;1.00;1.00;;;;;;4994375;28;20415;-69
2021/01/15 00:26:51;;;;;;;0.00;0.00;;;1.00;1.00;;;;;;4994168;28;20422;-71
2021/01/15 00:29:18;;;;;;;0.00;0.00;;;1.00;1.00;;;;;;4994623;28;20883;-69
2021/01/15 00:31:47;;;;;;;0.00;0.00;;;1.00;1.00;;;;;;4994668;28;20453;-68
2021/01/15 00:34:14;;;;;;;0.00;0.00;;;1.00;1.00;;;;;;4994329;28;20462;-68
2021/01/15 00:36:42;;;;;;;0.00;0.00;;;1.00;1.00;;;;;;4996412;28;20418;-70
2021/01/15 00:39:09;;;;;;;0.00;0.00;;;1.00;1.00;;;;;;4996972;28;20422;-69
2021/01/15 00:41:36;;;;;;;0.00;0.00;;;1.00;1.00;;;;;;4994593;28;20431;-69
2021/01/15 00:44:04;;;;;;;0.00;0.00;;;1.00;1.00;;;;;;4993826;28;20422;-69
2021/01/15 00:46:34;;;;;;;0.00;0.00;;;0.90;1.00;;;;;;4993946;28;20414;-69
2021/01/15 00:49:01;;;;;;;0.00;0.00;;;0.90;1.00;;;;;;4994070;28;20414;-69
2021/01/15 00:51:27;;;;;;;0.00;0.00;;;0.90;1.00;;;;;;4993851;28;20418;-69
2021/01/15 00:53:53;;;;;;;0.00;0.00;;;0.90;99.90;;;;;;4993726;28;21173;-69
2021/01/15 00:56:20;;;;;;;0.00;0.00;;;0.80;99.90;;;;;;4993513;28;20959;-69
2021/01/15 00:58:46;;;;;;;0.00;0.00;;;0.80;99.90;;;;;;4993876;28;20418;-69
2021/01/15 01:01:14;;;;;;;0.00;0.00;;;0.80;99.90;;;;;;4993667;28;20418;-69
2021/01/15 01:03:41;;;;;;;0.00;0.00;;;0.80;99.90;;;;;;4993935;28;20421;-70
2021/01/15 01:06:16;;;;;;;0.00;0.00;;;0.90;99.90;;;;;;4993799;28;20513;-70
2021/01/15 01:08:42;;;;;;;0.00;0.00;;;0.90;99.90;;;;;;4993656;28;20493;-70
2021/01/15 01:11:12;;;;;;;0.00;0.00;;;0.90;99.90;;;;;;4993179;28;20829;-69
2021/01/15 01:13:38;;;;;;;0.00;0.00;;;1.00;99.90;;;;;;4994046;28;21095;-70
2021/01/15 01:16:05;;;;;;;0.00;0.00;;;1.00;99.90;;;;;;4993810;28;20899;-70
2021/01/15 01:18:33;;;;;;;0.00;0.00;;;0.90;99.90;;;;;;4993839;28;20419;-70
2021/01/15 01:21:00;;;;;;;0.00;0.00;;;0.90;99.90;;;;;;4994104;28;20414;-71
2021/01/15 01:23:26;;;;;;;0.00;0.00;;;0.90;99.90;;;;;;4994258;28;20414;-70
2021/01/15 01:25:52;;;;;;;0.00;0.00;;;0.90;99.90;;;;;;4993775;28;20895;-70
2021/01/15 01:28:19;;;;;;;0.00;0.00;;;0.90;99.90;;;;;;4993300;28;20916;-69
2021/01/15 01:30:45;;;;;;;0.00;0.00;;;0.90;99.90;;;;;;4993335;28;20414;-69
2021/01/15 01:33:12;;;;;;;0.00;0.00;;;0.90;99.90;;;;;;4993358;28;20414;-69
2021/01/15 01:35:38;;;;;;;0.00;0.00;;;0.80;99.90;;;;;;4993151;28;20418;-69
2021/01/15 01:38:05;;;;;;;0.00;0.00;;;0.90;99.90;;;;;;4992714;28;20510;-69
2021/01/15 01:40:31;;;;;;;0.00;0.00;;;0.90;99.90;;;;;;4993349;28;20414;-69
2021/01/15 01:42:57;;;;;;;0.00;0.00;;;0.90;99.90;;;;;;4993125;28;20426;-69
2021/01/15 01:45:24;;;;;;;0.00;0.00;;;0.90;99.90;;;;;;4993224;28;20410;-68
2021/01/15 01:47:50;;;;;;;0.00;0.00;;;0.80;99.90;;;;;;4992627;28;20421;-69
2021/01/15 01:50:16;;;;;;;0.00;0.00;;;0.70;99.90;;;;;;4992805;28;20437;-69
2021/01/15 01:52:43;;;;;;;0.00;0.00;;;0.70;99.90;;;;;;4992522;28;20425;-69
2021/01/15 01:55:12;;;;;;;0.00;0.00;;;0.70;99.90;;;;;;4992963;28;20783;-69
2021/01/15 01:57:39;;;;;;;0.00;0.00;;;0.70;99.90;;;;;;4992404;28;20442;-69
2021/01/15 02:00:06;;;;;;;0.00;0.00;;;0.80;99.90;;;;;;4992751;28;20908;-69
2021/01/15 02:02:32;;;;;;;0.00;0.00;;;0.90;99.90;;;;;;4992667;28;20449;-69
2021/01/15 02:04:58;;;;;;;0.00;0.00;;;0.70;99.90;;;;;;4992493;28;20464;-69
2021/01/15 02:07:25;;;;;;;0.00;0.00;;;0.80;99.90;;;;;;4992181;28;20464;-69
2021/01/15 02:10:00;;;;;;;0.00;0.00;;;0.70;99.90;;;;;;4992550;28;20425;-69
2021/01/15 02:12:36;;;;;;;0.00;0.00;;;0.80;99.90;;;;;;4992542;28;20414;-69
2021/01/15 02:15:10;;;;;;;0.00;0.00;;;0.80;99.90;;;;;;4992371;28;20426;-69
2021/01/15 02:17:46;;;;;;;0.00;0.00;;;0.80;99.90;;;;;;4992087;28;20414;-69
2021/01/15 02:20:35;;;;;;;0.00;0.00;;;0.90;99.90;;;;;;4992491;28;20501;-69
2021/01/15 02:23:12;;;;;;;0.00;0.00;;;0.90;99.90;;;;;;4991675;28;20418;-69
2021/01/15 02:26:16;;;;;;;0.00;0.00;;;0.90;99.90;;;;;;4992331;28;20426;-69
2021/01/15 02:29:04;;;;;;;0.00;0.00;;;0.90;99.90;;;;;;4992190;28;20418;-69
2021/01/15 02:31:50;;;;;;;0.00;0.00;;;0.90;99.90;;;;;;4991803;28;20421;-69
2021/01/15 02:34:27;;;;;;;0.00;0.00;;;1.00;99.90;;;;;;4975397;28;20803;-69
2021/01/15 02:37:03;;;;;;;0.00;0.00;;;1.00;99.90;;;;;;4991912;28;20419;-69
2021/01/15 02:39:39;;;;;;;0.00;0.00;;;0.90;99.90;;;;;;4992096;28;20421;-69
2021/01/15 02:42:07;;;;;;;0.00;0.00;;;0.90;99.90;;;;;;4992091;28;20422;-69
2021/01/15 02:44:37;;;;;;;0.00;0.00;;;0.90;99.90;;;;;;4991785;28;20787;-69
2021/01/15 02:47:07;;;;;;;0.00;0.00;;;0.90;99.90;;;;;;4991549;28;20418;-69
2021/01/15 02:49:35;;;;;;;0.00;0.00;;;1.00;99.90;;;;;;4991929;28;20414;-69
2021/01/15 02:52:05;;;;;;;0.00;0.00;;;1.00;99.90;;;;;;4991725;28;20907;-69
2021/01/15 02:54:33;;;;;;;0.00;0.00;;;0.90;99.90;;;;;;4991680;28;20513;-69
2021/01/15 02:57:00;;;;;;;0.00;0.00;;;0.80;99.90;;;;;;4991527;28;20421;-69
2021/01/15 02:59:26;;;;;;;0.00;0.00;;;0.80;99.90;;;;;;4991507;28;20422;-69
2021/01/15 03:02:08;;;;;;;0.00;0.00;;;0.90;99.90;;;;;;4991684;28;20418;-69
2021/01/15 03:04:41;;;;;;;0.00;0.00;;;1.00;1.00;;;;;;4991792;28;20414;-69
2021/01/15 03:07:08;;;;;;;0.00;0.00;;;0.90;1.00;;;;;;4991296;28;20418;-69
2021/01/15 03:09:38;;;;;;;0.00;0.00;;;0.90;1.00;;;;;;4991669;28;20426;-69
2021/01/15 03:12:06;;;;;;;0.00;0.00;;;0.90;1.00;;;;;;4991587;28;20425;-69
2021/01/15 03:14:35;;;;;;;0.00;0.00;;;0.90;1.00;;;;;;4991581;28;20915;-69
2021/01/15 03:17:05;;;;;;;0.00;0.00;;;0.90;1.00;;;;;;4991186;28;20450;-69
2021/01/15 03:19:33;;;;;;;0.00;0.00;;;0.90;1.00;;;;;;4991699;28;20823;-69
2021/01/15 03:22:08;;;;;;;0.00;0.00;;;0.90;1.00;;;;;;4991445;28;21117;-69
2021/01/15 03:24:38;;;;;;;0.00;0.00;;;0.90;47.50;;;;;;4991480;28;20506;-69
2021/01/15 03:27:06;;;;;;;0.00;0.00;;;1.00;85.60;;;;;;4991568;28;20418;-69
2021/01/15 03:29:32;;;;;;;0.00;0.00;;;0.90;99.90;;;;;;4991435;28;20518;-69
2021/01/15 03:31:58;;;;;;;0.00;0.00;;;0.90;99.90;;;;;;4991445;28;20469;-69
2021/01/15 03:34:24;;;;;;;0.00;0.00;;;0.80;1.00;;;;;;4993554;28;20438;-69
2021/01/15 03:36:50;;;;;;;0.00;0.00;;;0.80;1.00;;;;;;4995000;28;20425;-70
2021/01/15 03:39:17;;;;;;;0.00;0.00;;;0.80;39.30;;;;;;4995152;28;20426;-70
2021/01/15 03:41:43;;;;;;;0.00;0.00;;;0.60;99.90;;;;;;4995298;28;20427;-69
2021/01/15 03:44:09;;;;;;;0.00;0.00;;;0.70;99.90;;;;;;4995361;28;20414;-69
2021/01/15 03:46:35;;;;;;;0.00;0.00;;;0.70;99.90;;;;;;4994732;28;20429;-69
2021/01/15 03:49:02;;;;;;;0.00;0.00;;;0.60;99.90;;;;;;4995190;28;20460;-69
2021/01/15 03:51:28;;;;;;;0.00;0.00;;;0.60;99.90;;;;;;4994833;28;20425;-69
2021/01/15 03:53:54;;;;;;;0.00;0.00;;;0.60;99.90;;;;;;4995246;28;20437;-69
2021/01/15 03:56:21;;;;;;;0.00;0.00;;;0.60;99.90;;;;;;4995258;28;20423;-69
2021/01/15 03:58:47;;;;;;;0.00;0.00;;;0.70;99.90;;;;;;4994723;28;20437;-69
2021/01/15 04:01:15;;;;;;;0.00;0.00;;;0.60;99.90;;;;;;4994654;28;20899;-69
2021/01/15 04:03:41;;;;;;;0.00;0.00;;;0.70;1.00;;;;;;4994862;28;20418;-70
2021/01/15 04:06:07;;;;;;;0.00;0.00;;;0.70;1.00;;;;;;4994858;28;20891;-70
2021/01/15 04:08:33;;;;;;;0.00;0.00;;;0.80;1.00;;;;;;4994634;28;20429;-70
2021/01/15 04:10:59;;;;;;;0.00;0.00;;;0.70;1.00;;;;;;4994750;28;20422;-69
2021/01/15 04:13:26;;;;;;;0.00;0.00;;;0.70;1.00;;;;;;4994701;28;20481;-69
2021/01/15 04:15:53;;;;;;;0.00;0.00;;;0.60;1.00;;;;;;4994519;28;20490;-69
2021/01/15 04:18:19;;;;;;;0.00;0.00;;;0.70;1.00;;;;;;4994383;28;20426;-69
2021/01/15 04:20:45;;;;;;;0.00;0.00;;;0.70;1.00;;;;;;4994301;28;20414;-69
2021/01/15 04:23:11;;;;;;;0.00;0.00;;;0.80;1.00;;;;;;4994587;28;20822;-69
2021/01/15 04:25:37;;;;;;;0.00;0.00;;;0.80;1.00;;;;;;4994716;28;20522;-69
2021/01/15 04:28:04;;;;;;;0.00;0.00;;;0.80;1.00;;;;;;4995506;28;20446;-70
2021/01/15 04:30:31;;;;;;;0.00;0.00;;;0.70;1.00;;;;;;4994750;28;20476;-69
2021/01/15 04:32:58;;;;;;;0.00;0.00;;;0.60;1.00;;;;;;4994639;28;20426;-69
2021/01/15 04:35:24;;;;;;;0.00;0.00;;;0.50;89.50;;;;;;4994254;28;20493;-69
2021/01/15 04:37:50;;;;;;;0.00;0.00;;;0.50;99.90;;;;;;4994232;28;20425;-70
2021/01/15 04:40:16;;;;;;;0.00;0.00;;;0.60;99.90;;;;;;4994720;28;20419;-70
2021/01/15 04:42:44;;;;;;;0.00;0.00;;;0.60;84.80;;;;;;4994622;28;20895;-70
2021/01/15 04:45:12;;;;;;;0.00;0.00;;;0.60;15.40;;;;;;4995466;28;20419;-70
2021/01/15 04:47:43;;;;;;;0.00;0.00;;;0.60;64.10;;;;;;4995090;28;20945;-69
2021/01/15 04:50:11;;;;;;;0.00;0.00;;;0.50;99.90;;;;;;4994590;28;20755;-70
2021/01/15 04:52:50;;;;;;;0.00;0.00;;;0.60;99.90;;;;;;4994328;28;20429;-70
2021/01/15 04:55:21;;;;;;;0.00;0.00;;;0.70;99.90;;;;;;4993983;28;20427;-70
2021/01/15 04:57:49;;;;;;;0.00;0.00;;;0.80;99.90;;;;;;4993865;28;20422;-70
2021/01/15 05:00:20;;;;;;;0.00;0.00;;;0.80;97.50;;;;;;4993661;28;20419;-70
2021/01/15 05:02:49;;;;;;;0.00;0.00;;;0.80;1.00;;;;;;4994119;28;20445;-70
2021/01/15 05:05:23;;;;;;;0.00;0.00;;;0.90;1.00;;;;;;4994158;28;20421;-69
2021/01/15 05:08:14;;;;;;;0.00;0.00;;;0.90;1.00;;;;;;4993573;28;20419;-70
2021/01/15 05:10:42;;;;;;;0.00;0.00;;;0.80;1.00;;;;;;4974300;28;20434;-69
2021/01/15 05:13:10;;;;;;;0.00;0.00;;;0.70;1.00;;;;;;4993997;28;20803;-70
2021/01/15 05:15:42;;;;;;;0.00;0.00;;;0.60;1.00;;;;;;4993564;28;20427;-69
2021/01/15 05:18:10;;;;;;;0.00;0.00;;;0.40;86.90;;;;;;4993295;28;20433;-69
2021/01/15 05:20:37;;;;;;;0.00;0.00;;;0.50;99.90;;;;;;4994431;28;20784;-70
2021/01/15 05:23:04;;;;;;;0.00;0.00;;;0.40;99.90;;;;;;4994069;28;20421;-70
2021/01/15 05:25:31;;;;;;;0.00;0.00;;;0.40;99.90;;;;;;5003057;28;20421;-70
2021/01/15 05:27:57;;;;;;;0.00;0.00;;;0.40;99.90;;;;;;5013138;28;20421;-70
2021/01/15 05:30:25;;;;;;;0.00;0.00;;;0.50;99.90;;;;;;5013068;28;20420;-70
2021/01/15 05:32:52;;;;;;;0.00;0.00;;;0.60;99.90;;;;;;5012808;28;20427;-69
2021/01/15 05:35:20;;;;;;;0.00;0.00;;;0.60;99.90;;;;;;5012495;28;20432;-68
2021/01/15 05:37:56;;;;;;;0.00;0.00;;;0.60;99.90;;;;;;5011920;28;20467;-69
2021/01/15 05:40:37;;;;;;;0.00;0.00;;;0.60;99.90;;;;;;5012544;28;20432;-71
2021/01/15 05:43:03;;;;;;;0.00;0.00;;;0.50;99.90;;;;;;5012701;28;20413;-69
2021/01/15 05:45:30;;;;;;;0.00;0.00;;;0.40;99.90;;;;;;5012041;28;20436;-70
2021/01/15 05:47:56;;;;;;;0.00;0.00;;;0.30;99.90;;;;;;5011734;28;20924;-70
2021/01/15 05:50:23;;;;;;;0.00;0.00;;;0.40;99.90;;;;;;5011997;28;20432;-70
2021/01/15 05:52:56;;;;;;;0.00;0.00;;;0.40;99.90;;;;;;5012352;28;20431;-70
2021/01/15 05:55:23;;;;;;;0.00;0.00;;;0.40;99.90;;;;;;5012442;28;20464;-70
2021/01/15 05:57:50;;;;;;;0.00;0.00;;;0.40;99.90;;;;;;5010724;28;20452;-71
2021/01/15 06:00:40;;;;;;;0.00;0.00;;;0.50;99.90;;;;;;5012027;28;20495;-70
2021/01/15 06:03:07;;;;;;;0.00;0.00;;;0.50;99.90;;;;;;4992233;28;20424;-70
2021/01/15 06:05:36;;;;;;;0.00;0.00;;;0.40;99.90;;;;;;5012316;28;20421;-70
2021/01/15 06:08:03;;;;;;;0.00;0.00;;;0.50;99.90;;;;;;5011486;28;20503;-70
2021/01/15 06:10:45;;;;;;;0.00;0.00;;;0.40;99.90;;;;;;5011787;28;20912;-70
2021/01/15 06:13:11;;;;;;;0.00;0.00;;;0.40;99.90;;;;;;5011861;28;20863;-71
2021/01/15 06:15:47;;;;;;;0.00;0.00;;;0.40;99.90;;;;;;5011892;28;20437;-70
2021/01/15 06:18:18;;;;;;;0.00;0.00;;;0.40;99.90;;;;;;5011345;28;20893;-70
2021/01/15 06:20:46;;;;;;;0.00;0.00;;;0.40;99.90;;;;;;5011907;28;20444;-69
2021/01/15 06:23:13;;;;;;;0.00;0.00;;;0.40;99.90;;;;;;5008498;28;20420;-69
2021/01/15 06:25:56;;;;;;;0.00;0.00;;;0.40;99.90;;;;;;5011168;28;20412;-67
2021/01/15 06:28:32;;;;;;;0.00;0.00;;;0.40;99.90;;;;;;5011676;28;20452;-69
2021/01/15 06:30:59;;;;;;;0.00;0.00;;;0.40;99.90;;;;;;5011453;28;20912;-70
2021/01/15 06:33:26;;;;;;;0.00;0.00;;;0.30;99.90;;;;;;5011625;28;20901;-70
2021/01/15 06:35:53;;;;;;;0.00;0.00;;;0.40;99.90;;;;;;5011515;28;20510;-69
2021/01/15 06:38:20;;;;;;;0.00;0.00;;;0.30;99.90;;;;;;5010543;28;20424;-70
2021/01/15 06:40:48;;;;;;;0.00;0.00;;;0.30;99.90;;;;;;5012010;28;20866;-69
2021/01/15 06:43:21;;;;;;;0.00;0.00;;;0.20;99.90;;;;;;5001607;28;20423;-69
2021/01/15 06:45:49;;;;;;;0.00;0.00;;;0.10;99.90;;;;;;4992222;28;20415;-69
2021/01/15 06:48:16;;;;;;;0.00;0.00;;;0.20;1.00;;;;;;4991482;28;20414;-69
2021/01/15 06:50:44;;;;;;;0.00;0.00;;;0.20;1.00;;;;;;4991865;28;20499;-69
2021/01/15 06:53:17;;;;;;;0.00;0.00;;;0.30;99.90;;;;;;4992036;28;20425;-69
2021/01/15 06:55:45;;;;;;;0.00;0.00;;;0.30;99.90;;;;;;4992248;28;20437;-70
2021/01/15 06:58:19;;;;;;;0.00;0.00;;;0.40;99.90;;;;;;4991396;28;20564;-69
2021/01/15 07:01:11;;;;;;;0.00;0.00;;;0.30;99.90;;;;;;4991799;28;20458;-70
2021/01/15 07:04:02;;;;;;;0.00;0.00;;;0.10;99.90;;;;;;5006504;28;20420;-68
2021/01/15 07:06:30;;;;;;;0.00;0.00;;;0.10;99.90;;;;;;5010342;28;20416;-69
2021/01/15 07:08:59;;;;;;;0.00;0.00;;;0.10;1.00;;;;;;5010200;28;20420;-68
2021/01/15 07:11:28;;;;;;;0.00;0.00;;;0.10;1.00;;;;;;5010479;28;20496;-68
2021/01/15 07:13:56;;;;;;;0.00;0.00;;;0.20;1.00;;;;;;5010639;28;20789;-68
2021/01/15 07:16:29;;;;;;;0.00;0.00;;;0.30;1.00;;;;;;5010730;28;20428;-68
2021/01/15 07:19:13;;;;;;;0.00;0.00;;;0.20;1.00;;;;;;5010853;28;20451;-68
2021/01/15 07:21:59;;;;;;;0.00;0.00;;;0.20;1.00;;;;;;5010019;28;20420;-71
2021/01/15 07:24:28;;;;;;;0.00;0.00;;;0.30;1.00;;;;;;5010151;28;20880;-71
2021/01/15 07:26:55;;;;;;;0.00;0.00;;;0.20;99.90;;;;;;5010359;28;20425;-70
2021/01/15 07:29:22;;;;;;;0.00;0.00;;;0.20;1.00;;;;;;5010496;28;20412;-69
2021/01/15 07:31:53;;;;;;;0.00;0.00;;;0.20;1.00;;;;;;5010562;28;20416;-70
2021/01/15 07:34:23;;;;;;;0.00;0.00;;;0.30;1.00;;;;;;5010595;28;20429;-69
2021/01/15 07:36:49;;;;;;;0.00;0.00;;;0.40;1.00;;;;;;5010820;28;20467;-68
2021/01/15 07:39:18;;;;;;;0.00;0.00;;;0.40;1.00;;;;;;5011371;28;20849;-70
2021/01/15 07:41:48;;;;;;;0.00;0.00;;;0.40;1.00;;;;;;5010381;28;20424;-69
2021/01/15 07:44:44;;;;;;;0.00;0.00;;;0.50;99.90;;;;;;5010161;28;20979;-69
2021/01/15 07:47:21;;;;;;;0.00;0.00;;;0.40;99.90;;;;;;4930413;29;20442;-68
2021/01/15 07:49:50;;;;;;;0.00;0.00;;;0.40;99.90;;;;;;4997552;28;20424;-67
2021/01/15 07:52:16;;;;;;;0.00;0.00;;;0.40;99.90;;;;;;5010510;28;20460;-67
2021/01/15 07:54:59;;;;;;;0.00;0.00;;;0.40;99.90;;;;;;5010825;28;20433;-67
2021/01/15 07:57:31;;;;;;;0.00;0.00;;;0.50;99.90;;;;;;5010153;28;20463;-67
2021/01/15 07:59:57;;;;;;;0.00;0.00;;;0.50;99.90;;;;;;5010716;28;20417;-67
2021/01/15 08:02:23;;;;;;;0.00;0.00;;;0.40;99.90;;;;;;5010703;28;20420;-68
2021/01/15 08:05:02;;;;;;;0.00;0.00;;;0.50;1.00;;;;;;5010534;28;20424;-69
2021/01/15 08:07:36;;;;;;;0.00;0.00;;;0.70;1.00;;;;;;5010279;28;20428;-68
2021/01/15 08:10:08;;;;;;;0.00;0.00;;;0.70;99.90;;;;;;5010141;28;20470;-66
2021/01/15 08:12:40;;;;;;;0.00;0.00;;;0.70;99.90;;;;;;5010108;28;20893;-69
2021/01/15 08:15:27;;;;;;;0.00;0.00;;;0.80;99.90;;;;;;5010495;28;20428;-67
2021/01/15 08:17:53;;;;;;;0.00;0.00;;;0.90;99.90;;;;;;5010200;28;20889;-68
2021/01/15 08:20:20;;;;;;;0.00;0.00;;;1.00;96.70;;;;;;5010362;28;20425;-67
2021/01/15 08:22:48;;;;;;;0.00;0.00;;;0.90;1.00;;;;;;5013649;28;20420;-67
2021/01/15 08:25:24;;;;;;;0.00;0.00;;;0.80;1.00;;;;;;5013788;28;20478;-69
2021/01/15 08:27:51;;;;;;;0.00;0.00;;;0.80;27.30;;;;;;5013333;28;20421;-68
2021/01/15 08:30:17;;;;;;;0.00;0.00;;;0.80;99.90;;;;;;5013603;28;20415;-68
2021/01/15 08:32:44;;;;;;;0.00;0.00;;;0.70;99.90;;;;;;5013744;28;20420;-69
2021/01/15 08:35:13;;;;;;;0.00;0.00;;;0.70;99.90;;;;;;5019473;28;20421;-68
2021/01/15 08:37:39;;;;;;;0.00;0.00;;;0.80;99.90;;;;;;5019057;28;20420;-68
2021/01/15 08:40:07;;;;;;;0.00;0.00;;;0.70;69.40;;;;;;5020493;28;20421;-70
2021/01/15 08:42:33;;;;;;;0.00;0.00;;;0.80;99.90;;;;;;5020774;28;20417;-70
2021/01/15 08:45:00;;;;;;;0.00;0.00;;;0.80;99.90;;;;;;5020692;28;20508;-69
2021/01/15 08:47:31;;;;;;;0.00;0.00;;;0.90;99.90;;;;;;5026127;28;20460;-70
2021/01/15 08:49:58;;;;;;;0.00;0.00;;;1.10;99.90;;;;;;5026036;28;20443;-70
2021/01/15 08:52:29;;;;;;;0.00;0.00;;;1.00;1.00;;;;;;5021752;28;20897;-70
2021/01/15 08:54:55;;;;;;;0.00;0.00;;;1.10;1.00;;;;;;5013629;28;20429;-72
2021/01/15 08:57:28;;;;;;;0.00;0.00;;;1.10;1.00;;;;;;5013422;28;20433;-70
2021/01/15 08:59:54;;;;;;;0.00;0.00;;;1.10;1.00;;;;;;5013093;28;20511;-69
2021/01/15 09:02:22;;;;;;;0.00;0.00;;;1.10;1.00;;;;;;5012772;28;20413;-68
2021/01/15 09:04:50;;;;;;;0.00;0.00;;;0.90;1.00;;;;;;5013280;28;20425;-69
2021/01/15 09:07:17;;;;;;;0.00;0.00;;;1.00;1.00;;;;;;5012826;28;20558;-68
2021/01/15 09:09:44;;;;;;;0.00;0.00;;;0.90;1.00;;;;;;5012615;28;20447;-68
2021/01/15 09:12:11;;;;;;;0.00;0.00;;;1.00;10.50;;;;;;5012373;28;20448;-69
2021/01/15 09:14:37;;;;;;;0.00;0.00;;;0.90;4.30;;;;;;5012499;28;20467;-70
2021/01/15 09:17:05;;;;;;;0.00;0.00;;;0.80;99.90;;;;;;5012682;28;20417;-69
2021/01/15 09:19:33;;;;;;;0.00;0.00;;;0.90;99.90;;;;;;5012574;28;20424;-69
2021/01/15 09:22:00;;;;;;;0.00;0.00;;;1.00;84.50;;;;;;5012330;28;20758;-69
2021/01/15 09:24:28;;;;;;;0.00;0.00;;;1.10;27.20;;;;;;5012346;28;20413;-69
2021/01/15 09:26:58;;;;;;;0.00;0.00;;;1.20;1.00;;;;;;5012012;28;20495;-70
2021/01/15 09:29:25;;;;;;;0.00;0.00;;;1.20;1.00;;;;;;5012720;28;20423;-70
2021/01/15 09:31:51;;;;;;;0.00;0.00;;;1.20;1.00;;;;;;5011953;28;20479;-70
2021/01/15 09:34:18;;;;;;;0.00;0.00;;;1.30;1.00;;;;;;5012232;28;20809;-70
2021/01/15 09:36:47;;;;;;;0.00;0.00;;;1.40;99.90;;;;;;5012619;28;20440;-70
2021/01/15 09:39:14;;;;;;;0.00;0.00;;;1.30;99.90;;;;;;5012695;28;20425;-69
2021/01/15 09:41:45;;;;;;;0.00;0.00;;;1.20;99.90;;;;;;5013255;28;21290;-71
2021/01/15 09:44:13;;;;;;;0.00;0.00;;;1.30;99.90;;;;;;5013650;28;20420;-70
2021/01/15 09:46:39;;;;;;;0.00;0.00;;;1.40;99.90;;;;;;5013378;28;20424;-70
2021/01/15 09:49:06;;;;;;;0.00;0.00;;;1.40;99.90;;;;;;5012910;28;20893;-71
2021/01/15 09:51:32;;;;;;;0.00;0.00;;;1.60;99.90;;;;;;5013076;28;20417;-71
2021/01/15 09:54:00;;;;;;;0.00;0.00;;;1.50;47.90;;;;;;5012061;28;20420;-70
2021/01/15 09:56:28;;;;;;;0.00;0.00;;;1.50;1.00;;;;;;5012789;28;20487;-70
2021/01/15 09:58:55;;;;;;;0.00;0.00;;;1.50;1.00;;;;;;5012463;28;20932;-70
2021/01/15 10:01:22;;;;;;;0.00;0.00;;;1.50;99.90;;;;;;5012529;28;20435;-69
2021/01/15 10:03:49;;;;;;;0.00;0.00;;;1.50;99.90;;;;;;5011928;28;20939;-69
2021/01/15 10:06:15;;;;;;;0.00;0.00;;;1.50;99.90;;;;;;5012724;28;20428;-71
2021/01/15 10:08:42;;;;;;;0.00;0.00;;;1.40;99.90;;;;;;5012038;28;20483;-69
2021/01/15 10:11:09;;;;;;;0.00;0.00;;;1.50;99.90;;;;;;5012735;28;20409;-70
2021/01/15 10:13:35;;;;;;;0.00;0.00;;;1.40;99.90;;;;;;5012189;28;20416;-69
2021/01/15 10:16:05;;;;;;;0.00;0.00;;;1.50;99.90;;;;;;5012196;28;20429;-70
2021/01/15 10:18:31;;;;;;;0.00;0.00;;;1.60;99.90;;;;;;5012618;28;20420;-68
2021/01/15 10:20:57;;;;;;;0.00;0.00;;;1.70;99.90;;;;;;5013065;28;20420;-69
2021/01/15 10:23:24;;;;;;;0.00;0.00;;;1.70;99.90;;;;;;5011978;28;20505;-69
2021/01/15 10:25:50;;;;;;;0.00;0.00;;;1.70;99.90;;;;;;5012587;28;20420;-70
2021/01/15 10:28:17;;;;;;;0.00;0.00;;;1.90;99.90;;;;;;5012454;28;20785;-70
2021/01/15 10:30:46;;;;;;;0.00;0.00;;;1.90;1.00;;;;;;5011959;28;20419;-68
2021/01/15 10:33:12;;;;;;;0.00;0.00;;;2.00;1.00;;;;;;5012015;28;20424;-70
2021/01/15 10:35:38;;;;;;;0.00;0.00;;;2.10;1.00;;;;;;5011609;28;20433;-69
2021/01/15 10:38:05;;;;;;;0.00;0.00;;;2.10;1.00;;;;;;5011393;28;20426;-69
2021/01/15 10:40:31;;;;;;;0.00;0.00;;;2.00;1.00;;;;;;5011858;28;20421;-69
2021/01/15 10:42:57;;;;;;;0.00;0.00;;;2.10;1.00;;;;;;5011027;28;20421;-69
2021/01/15 10:45:25;;;;;;;0.00;0.00;;;2.20;1.00;;;;;;5012759;28;20432;-70
2021/01/15 10:47:51;;;;;;;0.00;0.00;;;2.10;1.00;;;;;;5012623;28;20421;-71
2021/01/15 10:50:18;;;;;;;0.00;0.00;;;2.10;1.00;;;;;;5012227;28;20424;-69
2021/01/15 10:52:51;;;;;;;0.00;0.00;;;2.30;1.00;;;;;;5011777;28;20417;-70
2021/01/15 10:55:23;;;;;;;0.00;0.00;;;2.40;1.00;;;;;;5011674;28;20443;-71
2021/01/15 10:57:49;;;;;;;0.00;0.00;;;2.50;1.00;;;;;;5011338;28;20425;-72
2021/01/15 11:00:17;;;;;;;0.00;0.00;;;2.60;1.00;;;;;;5011094;28;20424;-72
2021/01/15 11:02:56;;;;;;;0.00;0.00;;;2.50;1.00;;;;;;5011113;28;20420;-69
2021/01/15 11:05:47;;;;;;;0.00;0.00;;;2.60;1.00;;;;;;5011569;28;20512;-76
2021/01/15 11:08:14;;;;;;;0.00;0.00;;;3.40;1.00;;;;;;5010983;28;20425;-71
2021/01/15 11:10:40;;;;;;;0.00;0.00;;;3.90;2.10;;;;;;5011452;28;20424;-71
2021/01/15 11:13:07;;;;;;;0.00;0.00;;;4.30;1.00;;;;;;5011099;28;20778;-71
2021/01/15 11:15:33;;;;;;;0.00;0.00;;;4.20;99.90;;;;;;5011962;28;20834;-69
2021/01/15 11:18:00;;;;;;;0.00;0.00;;;4.10;1.00;;;;;;5011357;28;20766;-70
2021/01/15 11:20:27;;;;;;;0.00;0.00;;;3.90;99.90;;;;;;5011444;28;20479;-72
2021/01/15 11:22:53;;;;;;;0.00;0.00;;;3.80;99.90;;;;;;5011430;28;20421;-69
2021/01/15 11:25:19;;;;;;;0.00;0.00;;;3.30;99.90;;;;;;5011518;28;20416;-68
2021/01/15 11:27:45;;;;;;;0.00;0.00;;;3.00;99.90;;;;;;5011687;28;20423;-67
2021/01/15 11:30:12;;;;;;;0.00;0.00;;;2.90;99.90;;;;;;5010754;28;20425;-68
2021/01/15 11:32:39;;;;;;;0.00;0.00;;;2.90;99.90;;;;;;5011224;28;20420;-67
2021/01/15 11:35:08;;;;;;;0.00;0.00;;;2.90;99.90;;;;;;5011098;28;20471;-67
2021/01/15 11:37:37;;;;;;;0.00;0.00;;;2.70;99.90;;;;;;5010679;28;20412;-68
2021/01/15 11:50:26;;;;;;;0.00;0.00;;;2.80;99.90;;;;;;1608623;23;20446;-68
2021/01/15 11:52:57;;;;;;;0.00;0.00;;;2.90;99.90;;;;;;4990954;28;20422;-67
2021/01/15 11:55:23;;;;;;;0.00;0.00;;;3.00;99.90;;;;;;4993779;28;20794;-68
2021/01/15 11:57:51;;;;;;;0.00;0.00;;;3.00;99.90;;;;;;4994930;28;20462;-68
2021/01/15 12:00:18;;;;;;;0.00;0.00;;;3.00;99.90;;;;;;4994634;28;20509;-68
2021/01/15 12:02:44;;;;;;;0.00;0.00;;;3.00;99.90;;;;;;4995078;28;20926;-68
2021/01/15 12:05:12;;;;;;;0.00;0.00;;;3.00;99.90;;;;;;4995047;28;20504;-68
2021/01/15 12:07:39;;;;;;;0.00;0.00;;;3.10;99.90;;;;;;4995071;28;20426;-68
2021/01/15 12:12:40;;;;;;;0.00;0.00;;;2.90;99.90;;;;;;5401164;23;20423;-69
2021/01/15 12:15:09;;;;;;;0.00;0.00;;;2.90;99.90;;;;;;5033927;28;20911;-68
2021/01/15 12:17:35;;;;;;;0.00;0.00;;;2.70;99.90;;;;;;5033751;28;20423;-68
2021/01/15 12:20:04;;;;;;;0.00;0.00;;;2.50;99.90;;;;;;5033743;28;20445;-69
2021/01/15 12:22:36;;;;;;;0.00;0.00;;;2.50;99.90;;;;;;5033115;28;20418;-70
2021/01/15 12:25:08;;;;;;;0.00;0.00;;;2.50;99.90;;;;;;5033719;28;20430;-69
2021/01/15 12:27:52;;;;;;;0.00;0.00;;;2.40;99.90;;;;;;5033515;28;20489;-69
2021/01/15 12:30:19;;;;;;;0.00;0.00;;;2.40;99.90;;;;;;5178300;23;20476;-69
2021/01/15 12:32:45;;;;;;;0.00;0.00;;;2.30;1.00;;;;;;5014057;28;20424;-68
2021/01/15 12:35:12;;;;;;;0.00;0.00;;;2.20;1.00;;;;;;5013806;28;20486;-69
2021/01/15 12:37:39;;;;;;;0.00;0.00;;;2.30;1.00;;;;;;5013817;28;20423;-68
2021/01/15 12:44:23;;;;;;;0.00;0.00;;;2.10;1.00;;;;;;4991488;28;20773;-72
2021/01/15 12:47:25;;;;;;;0.00;0.00;;;2.10;1.00;;;;;;4990829;28;20436;-71
2021/01/15 12:52:58;;;;;;;0.00;0.00;;;2.10;1.00;;;;;;5461182;23;20456;-71
2021/01/15 12:55:25;;;;;;;0.00;0.00;;;2.00;1.00;;;;;;5014348;28;20468;-71
2021/01/15 12:58:03;;;;;;;0.00;0.00;;;2.10;1.00;;;;;;5013337;28;20455;-70
2021/01/15 13:00:30;;;;;;;0.00;0.00;;;2.10;1.00;;;;;;5013483;28;20420;-69
2021/01/15 13:03:45;;;;;;;0.00;0.00;;;2.00;1.00;;;;;;5013747;28;20793;-71
2021/01/15 13:06:12;;;;;;;0.00;0.00;;;1.90;1.00;;;;;;5013610;28;20906;-70
2021/01/15 13:12:03;;;;;;;0.00;0.00;;;2.10;1.00;;;;;;5134429;23;20451;-69
2021/01/15 13:14:34;;;;;;;0.00;0.00;;;2.10;1.00;;;;;;5013998;28;20459;-68
2021/01/15 13:17:03;;;;;;;0.00;0.00;;;2.10;1.00;;;;;;5013213;28;20559;-69
2021/01/15 13:19:29;;;;;;;0.00;0.00;;;2.00;1.00;;;;;;5013442;28;20412;-69
2021/01/15 13:24:39;;;;;;;0.00;0.00;;;2.00;1.00;;;;;;5011860;28;20437;-67
2021/01/15 13:27:05;;;;;;;0.00;0.00;;;1.90;1.00;;;;;;5013052;28;20420;-68
2021/01/15 13:29:32;;;;;;;0.00;0.00;;;1.90;1.00;;;;;;5012837;28;20432;-68
2021/01/15 13:31:58;;;;;;;0.00;0.00;;;1.90;1.00;;;;;;5012617;28;20416;-68
2021/01/15 13:34:25;;;;;;;0.00;0.00;;;1.90;1.00;;;;;;5012387;28;20948;-67
2021/01/15 13:36:51;;;;;;;0.00;0.00;;;1.70;1.00;;;;;;5012397;28;20499;-66